Time;durP1;ratioP1;P1;durP2;ratioP2;P2;SDS_P1;SDS_P2;PMS_P1;PMS_P2;Temp;Humidity;BMP_temperature;BMP_pressure;BME280_temperature;BME280_humidity;BME280_pressure;Samples;Min_cycle;Max_cycle;Signal;HPM_P1;HPM_P2
2021/09/11 16:08:42;;;;;;;1.50;1.38;;;22.10;90.60;;;;;;5071155;28;20390;-86
2021/09/11 16:11:07;;;;;;;2.42;1.30;;;21.90;90.90;;;;;;5046898;28;20370;-82
2021/09/11 16:13:33;;;;;;;2.90;1.63;;;21.90;91.00;;;;;;5038040;28;20049;-80
2021/09/11 16:15:59;;;;;;;1.30;1.17;;;21.80;91.10;;;;;;5049352;28;20048;-79
2021/09/11 16:18:25;;;;;;;1.63;1.42;;;21.90;91.10;;;;;;5049584;28;20507;-80
2021/09/11 16:20:50;;;;;;;1.88;1.50;;;21.90;90.70;;;;;;5035534;28;20035;-81
2021/09/11 16:23:16;;;;;;;2.22;1.38;;;22.00;90.60;;;;;;5049291;28;20074;-81
2021/09/11 16:25:42;;;;;;;2.88;1.45;;;22.00;90.50;;;;;;5048154;28;20033;-80
2021/09/11 16:28:08;;;;;;;3.35;1.50;;;22.00;90.50;;;;;;5038535;28;20030;-81
2021/09/11 16:30:34;;;;;;;2.20;1.63;;;22.10;90.40;;;;;;5037618;28;20027;-80
2021/09/11 16:33:00;;;;;;;2.95;1.58;;;22.10;90.30;;;;;;5051211;28;20017;-80
2021/09/11 16:35:25;;;;;;;3.38;1.60;;;22.10;90.10;;;;;;5037135;28;20021;-83
2021/09/11 16:37:51;;;;;;;2.67;1.63;;;22.20;90.20;;;;;;5036876;28;20042;-79
2021/09/11 16:40:18;;;;;;;2.38;1.42;;;22.20;90.20;;;;;;5044122;28;20045;-81
2021/09/11 16:42:44;;;;;;;1.80;1.40;;;22.20;90.20;;;;;;5047914;28;20079;-80
2021/09/11 16:45:11;;;;;;;3.25;1.65;;;22.20;90.20;;;;;;5049233;28;20470;-81
2021/09/11 16:47:37;;;;;;;2.45;1.65;;;22.20;90.20;;;;;;5041167;28;20033;-81
2021/09/11 16:50:03;;;;;;;1.48;1.38;;;22.20;90.10;;;;;;5047927;28;20116;-81
2021/09/11 16:52:30;;;;;;;3.35;1.30;;;22.20;90.00;;;;;;5046570;28;20033;-80
2021/09/11 16:54:56;;;;;;;1.98;1.38;;;22.20;90.10;;;;;;5047643;28;20022;-82
2021/09/11 16:57:22;;;;;;;1.50;1.40;;;22.20;90.20;;;;;;5037119;28;20025;-82
2021/09/11 16:59:47;;;;;;;1.50;1.40;;;22.10;90.30;;;;;;5047052;28;20026;-82
2021/09/11 17:02:13;;;;;;;2.30;1.52;;;22.10;90.40;;;;;;5048908;28;20036;-79
2021/09/11 17:04:39;;;;;;;2.03;1.70;;;22.10;90.50;;;;;;5044984;28;20029;-81
2021/09/11 17:07:05;;;;;;;2.92;1.42;;;22.10;90.70;;;;;;5054588;28;20409;-81
2021/09/11 17:09:31;;;;;;;2.45;1.55;;;22.10;90.80;;;;;;5081706;28;20107;-82
2021/09/11 17:11:57;;;;;;;5.00;1.55;;;22.10;90.90;;;;;;5085302;28;20024;-82
2021/09/11 17:14:23;;;;;;;2.15;1.55;;;22.10;91.30;;;;;;5086076;28;20024;-81
2021/09/11 17:16:49;;;;;;;1.90;1.70;;;22.10;91.80;;;;;;5088134;28;20039;-81
2021/09/11 17:19:16;;;;;;;2.08;1.60;;;22.00;91.90;;;;;;5079029;28;20039;-83
2021/09/11 17:21:42;;;;;;;1.52;1.27;;;22.00;92.30;;;;;;5073957;28;20494;-83
2021/09/11 17:24:08;;;;;;;2.75;1.80;;;22.00;92.40;;;;;;5072074;28;20028;-80
2021/09/11 17:26:34;;;;;;;3.42;1.60;;;22.00;92.70;;;;;;5061788;28;20029;-82
2021/09/11 17:29:00;;;;;;;2.90;1.83;;;21.90;92.80;;;;;;5063371;28;20063;-82
2021/09/11 17:31:26;;;;;;;2.15;1.60;;;21.90;92.80;;;;;;5072762;28;20021;-83
2021/09/11 17:33:51;;;;;;;2.30;1.63;;;21.90;92.80;;;;;;5069412;28;20032;-82
2021/09/11 17:36:17;;;;;;;1.60;1.50;;;21.80;92.90;;;;;;5070035;28;20440;-80
2021/09/11 17:38:43;;;;;;;2.53;1.85;;;21.80;92.80;;;;;;5073117;28;20032;-80
2021/09/11 17:41:09;;;;;;;2.63;1.80;;;21.70;92.80;;;;;;5066431;28;20033;-80
2021/09/11 17:43:34;;;;;;;4.07;1.58;;;21.70;92.70;;;;;;5065906;28;20036;-81
2021/09/11 17:46:03;;;;;;;2.55;2.15;;;21.60;92.70;;;;;;5071435;28;20025;-80
2021/09/11 17:48:29;;;;;;;3.35;2.28;;;21.60;92.80;;;;;;5064088;28;20032;-84
2021/09/11 17:50:55;;;;;;;3.78;1.92;;;21.50;92.80;;;;;;5063714;28;20408;-81
2021/09/11 17:53:21;;;;;;;2.63;1.90;;;21.50;92.90;;;;;;5072350;28;20029;-80
2021/09/11 17:55:46;;;;;;;2.90;2.00;;;21.50;92.90;;;;;;5067047;28;20131;-78
2021/09/11 17:58:12;;;;;;;3.50;1.95;;;21.40;92.90;;;;;;5073665;28;20479;-85
2021/09/11 18:00:38;;;;;;;4.35;1.70;;;21.40;92.90;;;;;;5042213;28;20042;-81
2021/09/11 18:03:07;;;;;;;4.00;1.88;;;21.40;93.00;;;;;;5035764;28;20500;-82
2021/09/11 18:05:33;;;;;;;2.47;1.88;;;21.30;93.00;;;;;;5051833;28;20091;-82
2021/09/11 18:07:59;;;;;;;3.88;2.10;;;21.30;93.10;;;;;;5035583;28;20064;-81
2021/09/11 18:10:25;;;;;;;2.22;2.03;;;21.30;93.10;;;;;;5032501;28;20033;-81
2021/09/11 18:12:51;;;;;;;3.70;1.90;;;21.20;93.20;;;;;;5043663;28;20040;-80
2021/09/11 18:15:17;;;;;;;2.33;1.90;;;21.20;93.30;;;;;;5043724;28;20184;-80
2021/09/11 18:17:44;;;;;;;2.75;1.60;;;21.20;93.30;;;;;;5021678;28;20047;-81
2021/09/11 18:20:11;;;;;;;2.03;1.73;;;21.10;93.40;;;;;;5027686;28;20470;-82
2021/09/11 18:22:37;;;;;;;2.75;2.17;;;21.10;93.40;;;;;;5049308;28;20033;-82
2021/09/11 18:25:04;;;;;;;2.42;1.77;;;21.10;93.50;;;;;;5038967;28;20024;-82
2021/09/11 18:27:30;;;;;;;3.42;2.30;;;21.00;93.50;;;;;;5031183;28;20163;-78
2021/09/11 18:29:56;;;;;;;3.17;2.28;;;21.00;93.60;;;;;;5031168;28;20086;-78
2021/09/11 18:32:21;;;;;;;2.28;1.83;;;20.90;93.60;;;;;;5058768;28;20033;-81
2021/09/11 18:34:49;;;;;;;2.25;1.98;;;20.90;93.70;;;;;;5072875;28;20107;-82
2021/09/11 18:37:15;;;;;;;2.17;1.90;;;20.90;93.70;;;;;;5071137;28;20083;-83
2021/09/11 18:39:42;;;;;;;3.10;2.00;;;20.90;93.70;;;;;;5071251;28;20071;-84
2021/09/11 18:42:08;;;;;;;2.60;2.03;;;20.80;93.80;;;;;;5071851;28;20035;-83
2021/09/11 18:44:34;;;;;;;4.60;2.40;;;20.80;93.80;;;;;;5067081;28;20025;-82
2021/09/11 18:47:00;;;;;;;3.92;2.40;;;20.80;93.90;;;;;;5071114;28;20443;-81
2021/09/11 18:49:25;;;;;;;4.22;2.10;;;20.70;93.90;;;;;;5065531;28;20033;-82
2021/09/11 18:51:52;;;;;;;3.78;2.22;;;20.70;93.90;;;;;;5060745;28;20032;-81
2021/09/11 18:54:17;;;;;;;2.55;2.10;;;20.70;93.90;;;;;;5072431;28;20539;-82
2021/09/11 18:56:43;;;;;;;3.60;2.63;;;20.70;93.90;;;;;;5072478;28;20032;-82
2021/09/11 18:59:09;;;;;;;3.08;2.42;;;20.70;94.00;;;;;;5071847;28;20151;-81
2021/09/11 19:01:34;;;;;;;2.40;2.20;;;20.70;93.90;;;;;;5071678;28;20025;-81
2021/09/11 19:04:00;;;;;;;4.70;2.40;;;20.60;93.90;;;;;;5073685;28;20021;-82
2021/09/11 19:06:26;;;;;;;3.40;2.10;;;20.60;93.90;;;;;;5072786;28;20477;-84
2021/09/11 19:08:51;;;;;;;3.05;2.00;;;20.60;94.20;;;;;;5063104;28;20024;-82
2021/09/11 19:11:18;;;;;;;3.35;2.40;;;20.60;93.90;;;;;;5058432;28;20039;-82
2021/09/11 19:13:43;;;;;;;4.63;2.17;;;20.60;93.90;;;;;;5062769;28;20385;-80
2021/09/11 19:16:09;;;;;;;3.72;2.10;;;20.50;93.90;;;;;;5070653;28;20024;-79
2021/09/11 19:18:37;;;;;;;3.95;1.98;;;20.50;93.90;;;;;;5071819;28;20024;-80
2021/09/11 19:21:06;;;;;;;2.40;2.20;;;20.50;93.90;;;;;;5071761;28;20052;-80
2021/09/11 19:23:32;;;;;;;3.05;2.13;;;20.40;94.00;;;;;;5072020;28;20029;-82
2021/09/11 19:25:59;;;;;;;3.22;2.58;;;20.40;94.10;;;;;;5071854;28;20029;-82
2021/09/11 19:28:25;;;;;;;4.20;2.30;;;20.30;94.20;;;;;;5075550;28;20036;-82
2021/09/11 19:30:52;;;;;;;4.07;2.63;;;20.30;94.20;;;;;;5071813;28;20029;-81
2021/09/11 19:33:19;;;;;;;4.22;2.45;;;20.30;94.30;;;;;;5073182;28;20048;-82
2021/09/11 19:35:46;;;;;;;4.35;2.30;;;20.30;94.30;;;;;;5072173;28;20473;-82
2021/09/11 19:38:12;;;;;;;4.50;2.42;;;20.20;94.40;;;;;;5057665;28;20033;-81
2021/09/11 19:40:38;;;;;;;5.15;2.90;;;20.20;94.50;;;;;;5066922;28;20700;-81
2021/09/11 19:43:03;;;;;;;3.85;2.60;;;20.20;94.50;;;;;;5072037;28;20016;-82
2021/09/11 19:45:29;;;;;;;4.20;2.28;;;20.20;94.60;;;;;;5063963;28;20039;-80
2021/09/11 19:47:55;;;;;;;2.95;2.50;;;20.10;94.60;;;;;;5064401;28;20040;-81
2021/09/11 19:50:21;;;;;;;2.95;2.47;;;20.10;94.70;;;;;;5069151;28;20070;-80
2021/09/11 19:52:46;;;;;;;3.63;2.50;;;20.10;94.70;;;;;;5070390;28;20471;-80
2021/09/11 19:55:12;;;;;;;3.33;2.45;;;20.10;94.70;;;;;;5068621;28;20089;-80
2021/09/11 19:57:38;;;;;;;3.15;2.33;;;20.00;94.80;;;;;;5071266;28;20422;-80
2021/09/11 20:00:11;;;;;;;3.00;2.45;;;20.00;94.90;;;;;;5070594;28;20024;-80
2021/09/11 20:02:36;;;;;;;4.57;2.53;;;20.00;94.90;;;;;;5066004;28;20036;-80
2021/09/11 20:05:03;;;;;;;3.95;2.65;;;19.90;94.90;;;;;;5065006;28;20028;-80
2021/09/11 20:07:28;;;;;;;4.32;2.30;;;19.90;94.90;;;;;;5070958;28;20049;-83
2021/09/11 20:09:54;;;;;;;4.70;2.10;;;19.90;94.90;;;;;;5062196;28;20033;-82
2021/09/11 20:12:20;;;;;;;2.80;2.38;;;19.90;94.90;;;;;;5062612;28;20021;-81
2021/09/11 20:14:45;;;;;;;5.00;2.25;;;19.90;94.90;;;;;;5061622;28;20021;-83
2021/09/11 20:17:11;;;;;;;4.20;2.92;;;19.90;94.90;;;;;;5057096;28;20431;-83
2021/09/11 20:19:37;;;;;;;5.07;2.80;;;19.80;95.00;;;;;;5056725;28;20028;-83
2021/09/11 20:22:04;;;;;;;4.03;2.50;;;19.80;95.00;;;;;;5055671;28;20076;-83
2021/09/11 20:24:29;;;;;;;2.88;2.20;;;19.80;95.10;;;;;;5056240;28;20473;-83
2021/09/11 20:26:55;;;;;;;3.40;2.70;;;19.70;95.10;;;;;;5071338;28;20033;-83
2021/09/11 20:29:21;;;;;;;3.88;2.50;;;19.70;95.10;;;;;;5074735;28;20028;-84
2021/09/11 20:31:47;;;;;;;4.10;2.53;;;19.70;95.10;;;;;;5070768;28;20039;-83
2021/09/11 20:34:12;;;;;;;4.22;2.70;;;19.70;95.20;;;;;;5070941;28;20385;-83
2021/09/11 20:36:38;;;;;;;3.40;2.63;;;19.60;95.10;;;;;;5069039;28;20060;-83
2021/09/11 20:39:04;;;;;;;3.30;2.35;;;19.60;95.20;;;;;;5070319;28;20170;-80
2021/09/11 20:41:30;;;;;;;4.55;3.00;;;19.60;95.10;;;;;;5070053;28;20028;-83
2021/09/11 20:43:56;;;;;;;5.93;2.65;;;19.60;95.10;;;;;;5071086;28;20025;-82
2021/09/11 20:46:22;;;;;;;3.28;2.97;;;19.60;95.10;;;;;;5072491;28;20031;-82
2021/09/11 20:48:47;;;;;;;4.57;2.60;;;19.60;95.20;;;;;;5070773;28;20111;-82
2021/09/11 20:51:13;;;;;;;3.35;2.30;;;19.50;95.10;;;;;;5069994;28;20047;-82
2021/09/11 20:53:39;;;;;;;3.83;2.78;;;19.50;95.20;;;;;;5066870;28;20499;-83
2021/09/11 20:56:05;;;;;;;3.85;2.65;;;19.50;95.20;;;;;;5074880;28;20024;-82
2021/09/11 20:58:31;;;;;;;4.65;2.72;;;19.50;95.30;;;;;;5069831;28;20035;-81
2021/09/11 21:00:57;;;;;;;2.78;2.08;;;19.40;95.20;;;;;;5063517;28;20029;-80
2021/09/11 21:03:23;;;;;;;5.03;2.55;;;19.40;95.30;;;;;;5064473;28;20078;-81
2021/09/11 21:05:48;;;;;;;5.70;2.60;;;19.40;95.30;;;;;;5061922;28;20388;-81
2021/09/11 21:08:15;;;;;;;2.58;2.33;;;19.40;95.30;;;;;;5072569;28;20143;-85
2021/09/11 21:10:41;;;;;;;3.20;2.60;;;19.40;95.30;;;;;;5082888;28;20092;-84
2021/09/11 21:13:07;;;;;;;4.35;2.50;;;19.30;95.30;;;;;;5063716;28;20119;-80
2021/09/11 21:15:33;;;;;;;3.55;2.60;;;19.30;95.40;;;;;;5071281;28;20131;-80
2021/09/11 21:17:59;;;;;;;5.38;2.80;;;19.30;95.40;;;;;;5074653;28;20039;-82
